createdAt,value
2022-11-26T00:01:59.914Z,101620.59
2022-11-26T00:04:27.370Z,101615.34
2022-11-26T00:06:59.853Z,101623.09
2022-11-26T00:09:27.126Z,101618.69
2022-11-26T00:11:54.534Z,101627.50
2022-11-26T00:14:21.786Z,101628.34
2022-11-26T00:16:49.199Z,101627.44
2022-11-26T00:19:16.634Z,101626.59
2022-11-26T00:21:43.872Z,101631.81
2022-11-26T00:24:28.734Z,101636.09
2022-11-26T00:26:58.114Z,101637.03
2022-11-26T00:29:25.306Z,101639.66
2022-11-26T00:31:52.580Z,101634.41
2022-11-26T00:34:19.923Z,101642.25
2022-11-26T00:36:48.338Z,101644.88
2022-11-26T00:39:21.779Z,101643.09
2022-11-26T00:41:51.329Z,101646.59
2022-11-26T00:44:23.837Z,101649.19
2022-11-26T00:46:51.775Z,101656.19
2022-11-26T00:49:19.213Z,101662.31
2022-11-26T00:51:47.118Z,101664.06
2022-11-26T00:54:16.923Z,101663.28
2022-11-26T00:56:44.321Z,101672.84
2022-11-26T00:59:14.867Z,101669.34
2022-11-26T01:01:42.467Z,101671.97
2022-11-26T01:04:10.126Z,101683.34
2022-11-26T01:06:40.117Z,101678.06
2022-11-26T01:09:12.205Z,101679.81
2022-11-26T01:11:39.526Z,101684.16
2022-11-26T01:14:09.988Z,101682.38
2022-11-26T01:16:39.363Z,101690.25
2022-11-26T01:19:09.387Z,101686.69
2022-11-26T01:21:36.585Z,101697.19
2022-11-26T01:24:03.891Z,101697.19
2022-11-26T01:26:49.473Z,101698.03
2022-11-26T01:29:18.038Z,101700.72
2022-11-26T01:31:45.611Z,101701.56
2022-11-26T01:34:13.301Z,101701.56
2022-11-26T01:36:42.023Z,101702.47
2022-11-26T01:39:20.934Z,101699.84
2022-11-26T01:42:10.752Z,101703.34
2022-11-26T01:44:39.212Z,101709.44
2022-11-26T01:47:28.710Z,101713.78
2022-11-26T01:50:28.175Z,101709.38
2022-11-26T01:53:14.823Z,101712.03
2022-11-26T01:55:48.626Z,101712.88
2022-11-26T01:58:19.893Z,101712.06
2022-11-26T02:00:49.180Z,101718.13
2022-11-26T02:03:16.611Z,101719.84
2022-11-26T02:05:52.136Z,101726.81
2022-11-26T02:08:19.924Z,101731.22
2022-11-26T02:10:47.287Z,101729.47
2022-11-26T02:13:14.716Z,101722.53
2022-11-26T02:16:00.461Z,101732.13
2022-11-26T02:18:32.835Z,101733.91
2022-11-26T02:21:10.612Z,101734.72
2022-11-26T02:24:07.426Z,101750.44
2022-11-26T02:27:09.600Z,101745.25
2022-11-26T02:30:06.084Z,101748.81
2022-11-26T02:32:54.566Z,101752.28
2022-11-26T02:35:31.869Z,101755.03
2022-11-26T02:38:04.129Z,101758.47
2022-11-26T02:40:31.708Z,101757.56
2022-11-26T02:42:58.964Z,101765.41
2022-11-26T02:45:29.156Z,101767.25
2022-11-26T02:47:59.281Z,101767.25
2022-11-26T02:50:33.464Z,101757.63
2022-11-26T02:53:01.519Z,101758.56
2022-11-26T02:55:35.075Z,101757.63
2022-11-26T02:58:02.526Z,101758.41
2022-11-26T03:00:30.289Z,101765.41
2022-11-26T03:03:22.915Z,101768.88
2022-11-26T03:05:56.464Z,101767.16
2022-11-26T03:08:24.243Z,101771.59
2022-11-26T03:10:51.488Z,101771.50
2022-11-26T03:13:18.886Z,101772.34
2022-11-26T03:15:46.184Z,101771.44
2022-11-26T03:18:13.424Z,101779.34
2022-11-26T03:20:40.808Z,101781.13
2022-11-26T03:23:08.253Z,101790.72
2022-11-26T03:25:35.900Z,101784.66
2022-11-26T03:28:03.348Z,101788.97
2022-11-26T03:30:30.605Z,101795.06
2022-11-26T03:32:57.982Z,101800.38
2022-11-26T03:35:25.222Z,101803.06
2022-11-26T03:37:52.456Z,101802.13
2022-11-26T03:40:20.122Z,101800.31
2022-11-26T03:42:47.425Z,101799.44
2022-11-26T03:45:14.730Z,101802.03
2022-11-26T03:47:42.010Z,101807.31
2022-11-26T03:50:09.808Z,101806.44
2022-11-26T03:52:37.281Z,101818.72
2022-11-26T03:55:04.809Z,101816.19
2022-11-26T03:57:32.065Z,101820.56
2022-11-26T03:59:59.450Z,101820.53
2022-11-26T04:02:26.707Z,101822.19
2022-11-26T04:04:53.987Z,101827.38
2022-11-26T04:07:21.226Z,101832.69
2022-11-26T04:09:48.519Z,101833.63
2022-11-26T04:12:15.776Z,101843.28
2022-11-26T04:14:43.073Z,101839.81
2022-11-26T04:17:10.532Z,101840.72
2022-11-26T04:19:38.763Z,101844.13
2022-11-26T04:22:05.978Z,101847.59
2022-11-26T04:24:33.226Z,101852.00
2022-11-26T04:27:00.478Z,101852.00
2022-11-26T04:29:27.731Z,101855.50
2022-11-26T04:31:55.309Z,101857.25
2022-11-26T04:34:22.585Z,101868.63
2022-11-26T04:36:49.842Z,101860.81
2022-11-26T04:39:17.258Z,101873.06
2022-11-26T04:41:44.523Z,101876.47
2022-11-26T04:44:11.779Z,101874.75
2022-11-26T04:46:39.106Z,101888.75
2022-11-26T04:49:06.433Z,101891.38
2022-11-26T04:51:33.683Z,101898.44
2022-11-26T04:54:03.366Z,101890.53
2022-11-26T04:56:31.508Z,101895.84
2022-11-26T04:58:58.722Z,101898.47
2022-11-26T05:01:26.214Z,101904.53
2022-11-26T05:03:53.716Z,101904.50
2022-11-26T05:06:20.928Z,101910.59
2022-11-26T05:08:48.138Z,101918.44
2022-11-26T05:11:15.314Z,101921.97
2022-11-26T05:13:42.866Z,101919.31
2022-11-26T05:16:10.294Z,101919.31
2022-11-26T05:18:37.506Z,101931.53
2022-11-26T05:21:08.095Z,101925.44
2022-11-26T05:23:35.316Z,101935.06
2022-11-26T05:26:02.828Z,101942.88
2022-11-26T05:28:30.117Z,101946.47
2022-11-26T05:31:02.093Z,101945.59
2022-11-26T05:33:29.733Z,101947.38
2022-11-26T05:35:57.183Z,101953.53
2022-11-26T05:38:24.835Z,101950.03
2022-11-26T05:40:52.080Z,101949.19
2022-11-26T05:43:19.543Z,101949.09
2022-11-26T05:45:47.231Z,101957.81
2022-11-26T05:48:14.994Z,101952.66
2022-11-26T05:50:42.306Z,101961.38
2022-11-26T05:53:09.566Z,101961.34
2022-11-26T05:55:36.905Z,101956.13
2022-11-26T05:58:04.417Z,101968.38
2022-11-26T06:00:31.750Z,101967.53
2022-11-26T06:02:59.262Z,101974.50
2022-11-26T06:05:26.744Z,101978.00
2022-11-26T06:07:54.016Z,101974.50
2022-11-26T06:10:21.428Z,101977.16
2022-11-26T06:12:49.897Z,101983.22
2022-11-26T06:15:17.191Z,101985.84
2022-11-26T06:17:44.391Z,101990.25
2022-11-26T06:20:12.680Z,101999.03
2022-11-26T06:22:42.079Z,101998.06
2022-11-26T06:25:11.631Z,102004.19
2022-11-26T06:27:55.413Z,102008.56
2022-11-26T06:30:22.765Z,102010.34
2022-11-26T06:32:50.328Z,102021.69
2022-11-26T06:35:17.758Z,102020.88
2022-11-26T06:37:45.086Z,102014.78
2022-11-26T06:40:17.762Z,102026.16
2022-11-26T06:42:49.918Z,102031.41
2022-11-26T06:45:17.329Z,102041.94
2022-11-26T06:47:45.803Z,102039.34
2022-11-26T06:50:13.245Z,102050.72
2022-11-26T06:52:40.450Z,102056.84
2022-11-26T06:55:07.957Z,102055.94
2022-11-26T06:57:35.337Z,102062.94
2022-11-26T07:00:03.288Z,102068.19
2022-11-26T07:02:30.581Z,102074.28
2022-11-26T07:04:57.903Z,102069.09
2022-11-26T07:07:25.195Z,102071.69
2022-11-26T07:09:52.633Z,102077.81
2022-11-26T07:12:19.873Z,102074.31
2022-11-26T07:14:47.206Z,102076.94
2022-11-26T07:17:14.423Z,102074.31
2022-11-26T07:19:41.770Z,102079.53
2022-11-26T07:22:09.060Z,102089.16
2022-11-26T07:24:36.677Z,102087.38
2022-11-26T07:27:04.054Z,102081.22
2022-11-26T07:29:31.327Z,102090.88
2022-11-26T07:31:58.662Z,102083.91
2022-11-26T07:34:25.942Z,102085.63
2022-11-26T07:36:57.889Z,102090.03
2022-11-26T07:39:25.519Z,102088.25
2022-11-26T07:41:52.921Z,102094.34
2022-11-26T07:44:20.201Z,102101.41
2022-11-26T07:46:47.615Z,102105.75
2022-11-26T07:49:14.866Z,102112.72
2022-11-26T07:51:42.127Z,102112.72
2022-11-26T07:54:09.621Z,102118.03
2022-11-26T07:56:36.960Z,102116.25
2022-11-26T07:59:05.463Z,102124.06
2022-11-26T08:01:37.683Z,102122.34
2022-11-26T08:04:06.011Z,102123.19
2022-11-26T08:06:33.734Z,102116.97
2022-11-26T08:09:02.405Z,102130.94
2022-11-26T08:11:32.070Z,102133.63
2022-11-26T08:14:01.654Z,102133.66
2022-11-26T08:16:29.519Z,102135.38
2022-11-26T08:18:58.616Z,102137.97
2022-11-26T08:21:26.106Z,102137.97
2022-11-26T08:23:59.659Z,102138.00
2022-11-26T08:26:34.669Z,102137.06
2022-11-26T08:29:04.511Z,102146.69
2022-11-26T08:31:31.865Z,102151.06
2022-11-26T08:34:00.226Z,102151.91
2022-11-26T08:36:28.509Z,102160.69
2022-11-26T08:38:56.073Z,102161.56
2022-11-26T08:41:23.729Z,102162.41
2022-11-26T08:44:06.195Z,102168.53
2022-11-26T08:46:34.935Z,102158.06
2022-11-26T08:49:02.226Z,102165.09
2022-11-26T08:51:29.567Z,102169.47
2022-11-26T08:53:56.819Z,102178.16
2022-11-26T08:56:24.115Z,102176.38
2022-11-26T08:58:51.750Z,102182.47
2022-11-26T09:01:24.978Z,102181.63
2022-11-26T09:03:54.132Z,102189.47
2022-11-26T09:06:22.402Z,102192.09
2022-11-26T09:09:08.243Z,102191.31
2022-11-26T09:11:38.864Z,102190.44
2022-11-26T09:14:06.312Z,102192.13
2022-11-26T09:16:34.106Z,102194.75
2022-11-26T09:19:02.934Z,102201.78
2022-11-26T09:21:30.413Z,102205.28
2022-11-26T09:23:57.801Z,102201.78
2022-11-26T09:26:25.768Z,102200.91
2022-11-26T09:28:53.101Z,102219.28
2022-11-26T09:31:20.626Z,102214.00
2022-11-26T09:33:48.553Z,102226.31
2022-11-26T09:36:17.033Z,102219.31
2022-11-26T09:38:45.118Z,102221.94
2022-11-26T09:41:38.891Z,102224.53
2022-11-26T09:44:23.380Z,102225.41
2022-11-26T09:47:16.071Z,102228.94
2022-11-26T09:50:22.336Z,102242.94
2022-11-26T09:53:02.789Z,102237.72
2022-11-26T09:55:36.779Z,102241.19
2022-11-26T09:58:26.726Z,102243.88
2022-11-26T10:01:00.767Z,102249.97
2022-11-26T10:03:38.181Z,102240.34
2022-11-26T10:06:29.529Z,102258.75
2022-11-26T10:09:21.270Z,102249.03
2022-11-26T10:12:25.596Z,102247.25
2022-11-26T10:15:03.857Z,102251.69
2022-11-26T10:17:34.381Z,102254.31
2022-11-26T10:20:33.129Z,102249.91
2022-11-26T10:23:11.299Z,102259.59
2022-11-26T10:25:54.784Z,102253.44
2022-11-26T10:28:31.183Z,102262.28
2022-11-26T10:31:01.924Z,102268.41
2022-11-26T10:33:36.946Z,102266.66
2022-11-26T10:36:07.922Z,102268.34
2022-11-26T10:38:35.187Z,102269.22
2022-11-26T10:41:02.491Z,102263.06
2022-11-26T10:43:30.349Z,102271.84
2022-11-26T10:46:03.848Z,102269.22
2022-11-26T10:48:32.529Z,102271.84
2022-11-26T10:51:04.139Z,102279.72
2022-11-26T10:53:57.374Z,102272.72
2022-11-26T10:56:41.120Z,102276.19
2022-11-26T10:59:26.701Z,102276.19
2022-11-26T11:01:57.765Z,102287.56
2022-11-26T11:04:28.375Z,102282.28
2022-11-26T11:06:56.135Z,102276.09
2022-11-26T11:09:25.770Z,102276.97
2022-11-26T11:12:12.000Z,102279.66
2022-11-26T11:14:43.105Z,102277.00
2022-11-26T11:17:29.885Z,102278.75
2022-11-26T11:19:59.705Z,102278.72
2022-11-26T11:22:28.113Z,102283.13
2022-11-26T11:24:58.434Z,102292.78
2022-11-26T11:27:38.664Z,102293.66
2022-11-26T11:30:06.877Z,102290.97
2022-11-26T11:32:35.995Z,102296.16
2022-11-26T11:35:19.948Z,102293.47
2022-11-26T11:37:55.641Z,102297.00
2022-11-26T11:40:27.566Z,102292.59
2022-11-26T11:43:04.362Z,102292.56
2022-11-26T11:45:35.019Z,102295.22
2022-11-26T11:48:27.944Z,102296.06
2022-11-26T11:51:10.218Z,102296.94
2022-11-26T11:54:23.425Z,102295.16
2022-11-26T11:57:19.977Z,102296.06
2022-11-26T12:00:15.426Z,102304.00
2022-11-26T12:03:03.949Z,102303.13
2022-11-26T12:05:37.973Z,102301.47
2022-11-26T12:08:23.095Z,102307.59
2022-11-26T12:11:31.095Z,102304.06
2022-11-26T12:14:19.863Z,102308.53
2022-11-26T12:16:53.674Z,102315.53
2022-11-26T12:19:45.241Z,102308.53
2022-11-26T12:22:22.625Z,102310.38
2022-11-26T12:25:18.062Z,102315.59
2022-11-26T12:27:55.449Z,102308.63
2022-11-26T12:30:26.556Z,102311.25
2022-11-26T12:33:03.390Z,102300.72
2022-11-26T12:35:31.965Z,102309.53
2022-11-26T12:38:02.266Z,102308.59
2022-11-26T12:40:51.551Z,102310.38
2022-11-26T12:43:20.638Z,102314.78
2022-11-26T12:46:03.442Z,102312.16
2022-11-26T12:48:43.650Z,102308.63
2022-11-26T12:51:52.602Z,102313.88
2022-11-26T12:54:34.240Z,102319.16
2022-11-26T12:57:23.685Z,102316.50
2022-11-26T12:59:56.724Z,102313.84
2022-11-26T13:02:26.428Z,102322.56
2022-11-26T13:04:54.386Z,102316.44
2022-11-26T13:07:53.188Z,102312.94
2022-11-26T13:10:58.354Z,102316.53
2022-11-26T13:13:53.540Z,102317.28
2022-11-26T13:16:20.914Z,102319.94
2022-11-26T13:18:53.100Z,102314.66
2022-11-26T13:21:47.848Z,102324.28
2022-11-26T13:24:36.864Z,102326.03
2022-11-26T13:27:13.006Z,102324.25
2022-11-26T13:29:52.382Z,102329.53
2022-11-26T13:32:57.082Z,102333.03
2022-11-26T13:36:02.425Z,102328.69
2022-11-26T13:38:52.655Z,102328.72
2022-11-26T13:41:22.881Z,102327.00
2022-11-26T13:44:13.098Z,102321.75
2022-11-26T13:46:58.420Z,102326.09
2022-11-26T13:49:47.276Z,102329.66
2022-11-26T13:52:35.316Z,102325.31
2022-11-26T13:55:17.829Z,102324.44
2022-11-26T13:57:48.052Z,102322.66
2022-11-26T14:00:32.970Z,102334.88
2022-11-26T14:03:03.223Z,102337.50
2022-11-26T14:06:07.892Z,102334.88
2022-11-26T14:08:46.902Z,102342.75
2022-11-26T14:11:40.290Z,102339.28
2022-11-26T14:14:26.007Z,102340.97
2022-11-26T14:17:03.874Z,102342.72
2022-11-26T14:19:40.483Z,102341.03
2022-11-26T14:22:07.701Z,102344.50
2022-11-26T14:24:53.359Z,102342.78
2022-11-26T14:27:23.879Z,102341.91
2022-11-26T14:30:12.934Z,102341.06
2022-11-26T14:32:54.285Z,102343.66
2022-11-26T14:35:34.269Z,102348.03
2022-11-26T14:38:03.985Z,102343.66
2022-11-26T14:40:35.202Z,102345.41
2022-11-26T14:43:19.868Z,102352.41
2022-11-26T14:46:06.017Z,102352.44
2022-11-26T14:48:36.476Z,102348.03
2022-11-26T14:51:07.746Z,102350.66
2022-11-26T14:53:36.501Z,102347.13
2022-11-26T14:56:04.623Z,102344.53
2022-11-26T14:58:40.596Z,102345.44
2022-11-26T15:01:33.396Z,102348.03
2022-11-26T15:04:05.825Z,102357.66
2022-11-26T15:06:39.706Z,102354.19
2022-11-26T15:09:08.019Z,102362.91
2022-11-26T15:11:37.865Z,102362.94
2022-11-26T15:14:05.168Z,102365.53
2022-11-26T15:16:38.029Z,102367.31
2022-11-26T15:19:06.420Z,102367.31
2022-11-26T15:21:34.532Z,102369.94
2022-11-26T15:24:07.280Z,102370.81
2022-11-26T15:26:35.619Z,102370.81
2022-11-26T15:29:08.048Z,102360.31
2022-11-26T15:31:42.768Z,102364.69
2022-11-26T15:34:12.819Z,102363.81
2022-11-26T15:36:43.614Z,102365.56
2022-11-26T15:39:29.152Z,102361.19
2022-11-26T15:41:59.760Z,102364.69
2022-11-26T15:44:27.680Z,102363.81
2022-11-26T15:46:56.543Z,102364.69
2022-11-26T15:49:36.955Z,102356.78
2022-11-26T15:52:10.098Z,102363.81
2022-11-26T15:55:04.414Z,102360.28
2022-11-26T15:57:35.362Z,102350.66
2022-11-26T16:00:18.417Z,102354.19
2022-11-26T16:02:47.960Z,102357.66
2022-11-26T16:05:38.613Z,102358.53
2022-11-26T16:08:23.096Z,102347.16
2022-11-26T16:10:59.935Z,102347.16
2022-11-26T16:13:28.204Z,102346.28
2022-11-26T16:16:05.903Z,102354.16
2022-11-26T16:18:43.880Z,102352.41
2022-11-26T16:21:24.469Z,102358.53
2022-11-26T16:23:56.181Z,102363.78
2022-11-26T16:26:24.001Z,102362.03
2022-11-26T16:28:51.258Z,102368.19
2022-11-26T16:31:18.961Z,102367.31
2022-11-26T16:33:46.613Z,102378.69
2022-11-26T16:36:33.192Z,102384.81
2022-11-26T16:39:00.604Z,102383.97
2022-11-26T16:41:27.955Z,102387.50
2022-11-26T16:43:57.371Z,102397.97
2022-11-26T16:46:27.768Z,102396.22
2022-11-26T16:48:55.030Z,102404.13
2022-11-26T16:51:23.107Z,102399.72
2022-11-26T16:53:51.025Z,102397.09
2022-11-26T16:56:38.188Z,102390.09
2022-11-26T16:59:18.663Z,102392.69
2022-11-26T17:01:47.254Z,102396.22
2022-11-26T17:04:14.718Z,102397.94
2022-11-26T17:06:43.238Z,102397.06
2022-11-26T17:09:19.373Z,102391.81
2022-11-26T17:11:47.260Z,102402.34
2022-11-26T17:14:14.666Z,102404.13
2022-11-26T17:16:41.996Z,102404.09
2022-11-26T17:19:15.127Z,102402.34
2022-11-26T17:21:42.407Z,102415.47
2022-11-26T17:24:09.875Z,102417.22
2022-11-26T17:26:37.350Z,102410.22
2022-11-26T17:29:04.889Z,102406.72
2022-11-26T17:31:32.153Z,102417.25
2022-11-26T17:33:59.409Z,102411.97
2022-11-26T17:36:26.789Z,102406.75
2022-11-26T17:38:54.217Z,102412.00
2022-11-26T17:41:22.713Z,102407.59
2022-11-26T17:43:50.014Z,102413.72
2022-11-26T17:46:19.692Z,102412.84
2022-11-26T17:48:48.021Z,102410.22
2022-11-26T17:51:16.828Z,102412.84
2022-11-26T17:53:45.159Z,102417.25
2022-11-26T17:56:21.775Z,102411.13
2022-11-26T17:58:49.530Z,102409.38
2022-11-26T18:01:17.938Z,102413.75
2022-11-26T18:03:46.208Z,102411.97
2022-11-26T18:06:18.861Z,102409.38
2022-11-26T18:08:46.526Z,102414.63
2022-11-26T18:11:15.768Z,102403.22
2022-11-26T18:13:42.928Z,102412.00
2022-11-26T18:16:10.113Z,102411.13
2022-11-26T18:18:37.349Z,102416.38
2022-11-26T18:21:06.206Z,102415.50
2022-11-26T18:23:34.012Z,102417.25
2022-11-26T18:26:01.704Z,102413.75
2022-11-26T18:28:29.789Z,102412.00
2022-11-26T18:31:00.281Z,102410.22
2022-11-26T18:33:27.829Z,102413.72
2022-11-26T18:35:55.132Z,102411.97
2022-11-26T18:38:22.734Z,102401.47
2022-11-26T18:41:00.032Z,102403.22
2022-11-26T18:43:27.442Z,102404.97
2022-11-26T18:45:57.432Z,102406.72
2022-11-26T18:48:24.778Z,102397.97
2022-11-26T18:50:58.958Z,102402.34
2022-11-26T18:53:27.400Z,102393.59
2022-11-26T18:55:55.628Z,102400.59
2022-11-26T18:58:23.496Z,102394.47
2022-11-26T19:00:53.868Z,102401.47
2022-11-26T19:03:21.458Z,102405.00
2022-11-26T19:05:51.599Z,102401.47
2022-11-26T19:08:20.311Z,102405.88
2022-11-26T19:10:48.040Z,102403.22
2022-11-26T19:13:15.629Z,102396.25
2022-11-26T19:15:43.890Z,102399.75
2022-11-26T19:18:12.987Z,102397.97
2022-11-26T19:20:53.622Z,102391.88
2022-11-26T19:23:24.332Z,102396.22
2022-11-26T19:25:51.971Z,102390.13
2022-11-26T19:28:19.458Z,102386.63
2022-11-26T19:30:56.305Z,102386.63
2022-11-26T19:33:23.541Z,102386.59
2022-11-26T19:35:50.966Z,102387.47
2022-11-26T19:38:21.098Z,102387.50
2022-11-26T19:40:48.372Z,102387.47
2022-11-26T19:43:15.680Z,102385.72
2022-11-26T19:45:42.908Z,102391.84
2022-11-26T19:48:10.348Z,102394.47
2022-11-26T19:50:37.590Z,102390.09
2022-11-26T19:53:04.939Z,102386.63
2022-11-26T19:55:32.283Z,102389.22
2022-11-26T19:57:59.483Z,102382.22
2022-11-26T20:00:26.699Z,102381.34
2022-11-26T20:02:53.927Z,102385.72
2022-11-26T20:05:21.236Z,102390.09
2022-11-26T20:07:48.737Z,102385.72
2022-11-26T20:10:16.129Z,102394.47
2022-11-26T20:12:43.611Z,102395.34
2022-11-26T20:15:11.366Z,102394.50
2022-11-26T20:17:38.824Z,102391.88
2022-11-26T20:20:07.080Z,102398.84
2022-11-26T20:22:36.991Z,102394.47
2022-11-26T20:25:04.497Z,102393.59
2022-11-26T20:27:31.802Z,102392.72
2022-11-26T20:29:59.051Z,102397.13
2022-11-26T20:32:26.296Z,102389.22
2022-11-26T20:34:53.782Z,102394.47
2022-11-26T20:37:20.986Z,102392.75
2022-11-26T20:39:48.229Z,102394.53
2022-11-26T20:42:15.449Z,102388.34
2022-11-26T20:44:42.874Z,102386.59
2022-11-26T20:47:11.060Z,102390.09
2022-11-26T20:49:43.007Z,102390.13
2022-11-26T20:52:10.603Z,102396.25
2022-11-26T20:54:37.969Z,102398.88
2022-11-26T20:57:07.528Z,102392.75
2022-11-26T20:59:35.137Z,102401.50
2022-11-26T21:02:03.665Z,102401.50
2022-11-26T21:04:36.220Z,102396.25
2022-11-26T21:07:04.303Z,102404.13
2022-11-26T21:09:34.565Z,102398.84
2022-11-26T21:12:04.869Z,102399.72
2022-11-26T21:14:32.099Z,102398.00
2022-11-26T21:16:59.542Z,102401.50
2022-11-26T21:19:26.988Z,102386.59
2022-11-26T21:21:57.090Z,102395.38
2022-11-26T21:24:24.413Z,102391.88
2022-11-26T21:26:51.586Z,102393.63
2022-11-26T21:29:20.484Z,102397.09
2022-11-26T21:31:47.662Z,102395.38
2022-11-26T21:34:17.765Z,102397.09
2022-11-26T21:36:45.400Z,102404.97
2022-11-26T21:39:15.878Z,102401.50
2022-11-26T21:41:43.287Z,102401.50
2022-11-26T21:44:11.592Z,102392.75
2022-11-26T21:46:40.106Z,102395.38
2022-11-26T21:49:08.264Z,102396.25
2022-11-26T21:51:35.717Z,102392.75
2022-11-26T21:54:02.952Z,102396.22
2022-11-26T21:56:31.814Z,102395.34
2022-11-26T21:58:59.792Z,102399.72
2022-11-26T22:01:29.985Z,102394.47
2022-11-26T22:03:59.582Z,102401.50
2022-11-26T22:06:27.494Z,102393.59
2022-11-26T22:08:55.545Z,102394.50
2022-11-26T22:11:25.409Z,102390.13
2022-11-26T22:13:53.482Z,102390.13
2022-11-26T22:16:22.375Z,102394.47
2022-11-26T22:18:49.916Z,102395.38
2022-11-26T22:21:22.993Z,102398.88
2022-11-26T22:23:51.084Z,102398.00
2022-11-26T22:26:19.107Z,102400.63
2022-11-26T22:28:46.946Z,102398.00
2022-11-26T22:31:25.557Z,102391.84
2022-11-26T22:34:07.266Z,102396.25
2022-11-26T22:36:34.859Z,102390.13
2022-11-26T22:39:03.041Z,102393.63
2022-11-26T22:41:30.250Z,102399.75
2022-11-26T22:43:59.693Z,102392.75
2022-11-26T22:46:27.181Z,102399.75
2022-11-26T22:48:57.166Z,102402.38
2022-11-26T22:51:25.748Z,102393.66
2022-11-26T22:53:58.242Z,102400.63
2022-11-26T22:56:26.077Z,102405.88
2022-11-26T22:58:53.596Z,102403.25
2022-11-26T23:01:24.767Z,102392.75
2022-11-26T23:03:52.346Z,102391.88
2022-11-26T23:06:22.069Z,102397.13
2022-11-26T23:08:49.854Z,102388.38
2022-11-26T23:11:26.657Z,102393.63
2022-11-26T23:13:54.291Z,102397.09
2022-11-26T23:16:24.094Z,102390.97
2022-11-26T23:18:53.015Z,102397.09
2022-11-26T23:21:25.667Z,102386.63
2022-11-26T23:23:53.220Z,102387.50
2022-11-26T23:26:29.063Z,102390.13
2022-11-26T23:28:57.046Z,102390.09
2022-11-26T23:31:32.857Z,102384.84
2022-11-26T23:34:00.512Z,102379.63
2022-11-26T23:36:31.259Z,102387.47
2022-11-26T23:39:00.815Z,102387.50
2022-11-26T23:41:28.403Z,102381.34
2022-11-26T23:43:55.742Z,102384.88
2022-11-26T23:46:25.548Z,102385.75
2022-11-26T23:48:53.040Z,102386.59
2022-11-26T23:51:25.960Z,102382.25
2022-11-26T23:53:53.663Z,102384.88
2022-11-26T23:56:29.877Z,102384.88
2022-11-26T23:58:59.577Z,102385.72
